createdAt,value
2017-05-31T00:00:10.012Z,16.60
2017-05-31T00:02:38.866Z,16.60
2017-05-31T00:05:07.731Z,16.50
2017-05-31T00:07:36.642Z,16.50
2017-05-31T00:10:05.534Z,16.40
2017-05-31T00:12:34.398Z,16.40
2017-05-31T00:15:03.295Z,16.40
2017-05-31T00:17:33.438Z,16.40
2017-05-31T00:20:02.336Z,16.50
2017-05-31T00:22:31.200Z,16.40
2017-05-31T00:24:59.298Z,16.40
2017-05-31T00:27:28.226Z,16.30
2017-05-31T00:29:57.076Z,16.20
2017-05-31T00:32:25.200Z,16.20
2017-05-31T00:34:53.316Z,16.20
2017-05-31T00:37:24.020Z,16.20
2017-05-31T00:39:53.302Z,16.00
2017-05-31T00:42:22.188Z,15.90
2017-05-31T00:44:51.035Z,15.80
2017-05-31T00:47:19.931Z,15.80
2017-05-31T00:49:48.836Z,15.80
2017-05-31T00:52:17.745Z,15.90
2017-05-31T00:54:46.610Z,16.00
2017-05-31T00:57:15.820Z,16.10
2017-05-31T00:59:45.351Z,16.10
2017-05-31T01:02:14.251Z,16.00
2017-05-31T01:04:43.137Z,16.10
2017-05-31T01:07:11.995Z,16.10
2017-05-31T01:09:40.875Z,16.00
2017-05-31T01:12:08.962Z,16.00
2017-05-31T01:14:37.813Z,16.10
2017-05-31T01:17:06.697Z,16.10
2017-05-31T01:19:35.592Z,16.20
2017-05-31T01:22:05.020Z,16.20
2017-05-31T01:24:34.724Z,16.20
2017-05-31T01:27:03.668Z,16.10
2017-05-31T01:29:32.547Z,16.10
2017-05-31T01:32:01.460Z,16.20
2017-05-31T01:34:30.324Z,16.20
2017-05-31T01:37:00.480Z,16.20
2017-05-31T01:39:29.365Z,16.20
2017-05-31T01:41:58.191Z,16.20
2017-05-31T01:44:26.321Z,16.20
2017-05-31T01:46:55.445Z,16.20
2017-05-31T01:49:24.626Z,16.20
2017-05-31T01:51:53.502Z,16.20
2017-05-31T01:54:22.385Z,16.10
2017-05-31T01:56:52.423Z,16.10
2017-05-31T01:59:21.272Z,16.10
2017-05-31T02:01:50.402Z,16.10
2017-05-31T02:04:19.278Z,16.10
2017-05-31T02:06:48.137Z,16.00
2017-05-31T02:09:17.076Z,15.90
2017-05-31T02:11:45.195Z,15.90
2017-05-31T02:14:14.103Z,15.80
2017-05-31T02:16:42.993Z,15.90
2017-05-31T02:19:11.888Z,15.90
2017-05-31T02:21:40.755Z,15.90
2017-05-31T02:24:10.437Z,16.00
2017-05-31T02:26:39.343Z,16.00
2017-05-31T02:29:08.267Z,15.90
2017-05-31T02:31:39.206Z,15.90
2017-05-31T02:34:08.113Z,15.80
2017-05-31T02:36:36.981Z,15.70
2017-05-31T02:39:05.862Z,15.70
2017-05-31T02:41:34.737Z,15.70
2017-05-31T02:44:03.648Z,15.80
2017-05-31T02:46:32.521Z,15.80
2017-05-31T02:49:00.627Z,15.80
2017-05-31T02:51:30.643Z,15.60
2017-05-31T02:53:59.499Z,15.50
2017-05-31T02:56:28.414Z,15.40
2017-05-31T02:58:57.284Z,15.40
2017-05-31T03:01:26.145Z,15.50
2017-05-31T03:03:54.268Z,15.50
2017-05-31T03:06:23.151Z,15.50
2017-05-31T03:08:51.263Z,15.40
2017-05-31T03:11:20.123Z,15.60
2017-05-31T03:13:49.035Z,15.70
2017-05-31T03:16:17.910Z,15.70
2017-05-31T03:18:47.665Z,15.70
2017-05-31T03:21:16.545Z,15.70
2017-05-31T03:23:45.411Z,15.70
2017-05-31T03:26:14.652Z,15.70
2017-05-31T03:28:43.509Z,15.60
2017-05-31T03:31:12.378Z,15.50
2017-05-31T03:33:41.262Z,15.50
2017-05-31T03:36:10.146Z,15.50
2017-05-31T03:38:39.012Z,15.60
2017-05-31T03:41:07.863Z,15.60
2017-05-31T03:43:36.767Z,15.60
2017-05-31T03:46:05.619Z,15.60
2017-05-31T03:48:34.486Z,15.60
2017-05-31T03:51:03.577Z,15.60
2017-05-31T03:53:32.463Z,15.60
2017-05-31T03:56:01.357Z,15.70
2017-05-31T03:58:30.263Z,15.70
2017-05-31T04:00:59.135Z,15.80
2017-05-31T04:03:28.038Z,15.80
2017-05-31T04:05:56.925Z,15.70
2017-05-31T04:08:25.081Z,15.70
2017-05-31T04:10:53.950Z,15.70
2017-05-31T04:13:22.071Z,15.70
2017-05-31T04:15:51.194Z,15.70
2017-05-31T04:18:20.877Z,15.80
2017-05-31T04:20:49.771Z,15.90
2017-05-31T04:23:18.639Z,15.80
2017-05-31T04:25:47.533Z,15.80
2017-05-31T04:28:31.614Z,15.80
2017-05-31T04:31:00.520Z,15.80
2017-05-31T04:33:28.639Z,15.70
2017-05-31T04:35:57.860Z,15.90
2017-05-31T04:38:26.746Z,15.90
2017-05-31T04:40:55.642Z,15.90
2017-05-31T04:43:24.557Z,15.80
2017-05-31T04:45:53.420Z,15.80
2017-05-31T04:48:22.330Z,15.80
2017-05-31T04:50:50.432Z,15.80
2017-05-31T04:53:19.344Z,15.80
2017-05-31T04:55:48.219Z,15.80
2017-05-31T04:58:17.782Z,15.90
2017-05-31T05:00:48.959Z,16.00
2017-05-31T05:03:17.848Z,16.10
2017-05-31T05:05:46.732Z,16.20
2017-05-31T05:08:17.668Z,16.50
2017-05-31T05:10:47.282Z,16.40
2017-05-31T05:13:16.153Z,16.50
2017-05-31T05:15:45.035Z,16.50
2017-05-31T05:18:13.168Z,16.50
2017-05-31T05:20:42.035Z,16.80
2017-05-31T05:23:10.180Z,16.80
2017-05-31T05:25:39.059Z,17.00
2017-05-31T05:28:08.796Z,17.20
2017-05-31T05:30:37.671Z,17.30
2017-05-31T05:33:06.542Z,17.40
2017-05-31T05:35:35.432Z,17.40
2017-05-31T05:38:03.521Z,17.30
2017-05-31T05:40:32.415Z,17.10
2017-05-31T05:43:01.291Z,16.90
2017-05-31T05:45:30.192Z,16.70
2017-05-31T05:48:00.002Z,16.70
2017-05-31T05:50:28.893Z,16.80
2017-05-31T05:52:58.786Z,16.80
2017-05-31T05:55:27.640Z,16.90
2017-05-31T05:57:57.620Z,17.00
2017-05-31T06:00:27.432Z,17.30
2017-05-31T06:02:56.282Z,17.50
2017-05-31T06:05:25.190Z,17.40
2017-05-31T06:07:54.039Z,17.30
2017-05-31T06:10:22.993Z,17.30
2017-05-31T06:12:51.940Z,17.20
2017-05-31T06:15:20.812Z,17.30
2017-05-31T06:17:49.679Z,17.30
2017-05-31T06:20:19.470Z,17.20
2017-05-31T06:22:48.458Z,17.40
2017-05-31T06:25:17.361Z,17.50
2017-05-31T06:27:46.237Z,17.50
2017-05-31T06:30:14.363Z,17.50
2017-05-31T06:32:42.500Z,17.40
2017-05-31T06:35:11.499Z,17.40
2017-05-31T06:37:40.386Z,17.50
2017-05-31T06:40:09.265Z,17.50
2017-05-31T06:42:38.115Z,17.60
2017-05-31T06:45:06.211Z,17.60
2017-05-31T06:47:35.096Z,18.00
2017-05-31T06:50:04.021Z,17.90
2017-05-31T06:52:32.951Z,17.90
2017-05-31T06:55:01.853Z,17.80
2017-05-31T06:57:30.801Z,17.80
2017-05-31T06:59:59.694Z,17.90
2017-05-31T07:02:30.553Z,18.10
2017-05-31T07:04:59.459Z,18.20
2017-05-31T07:07:28.318Z,18.20
2017-05-31T07:09:57.211Z,18.10
2017-05-31T07:12:26.114Z,17.90
2017-05-31T07:14:54.986Z,17.90
2017-05-31T07:17:23.875Z,17.80
2017-05-31T07:19:52.759Z,17.80
2017-05-31T07:22:20.879Z,17.80
2017-05-31T07:24:54.917Z,18.20
2017-05-31T07:27:23.787Z,18.20
2017-05-31T07:29:52.729Z,18.20
2017-05-31T07:32:21.637Z,18.10
2017-05-31T07:34:50.495Z,18.00
2017-05-31T07:37:23.072Z,17.90
2017-05-31T07:39:51.966Z,17.80
2017-05-31T07:42:20.894Z,17.80
2017-05-31T07:44:49.765Z,18.00
2017-05-31T07:47:18.669Z,18.30
2017-05-31T07:49:47.570Z,18.50
2017-05-31T07:52:16.494Z,18.40
2017-05-31T07:54:45.373Z,18.40
2017-05-31T07:57:14.278Z,18.20
2017-05-31T07:59:42.432Z,18.20
2017-05-31T08:02:11.313Z,18.10
2017-05-31T08:04:40.230Z,18.10
2017-05-31T08:07:09.199Z,18.10
2017-05-31T08:09:38.248Z,18.10
2017-05-31T08:12:07.138Z,18.10
2017-05-31T08:14:35.265Z,18.10
2017-05-31T08:17:08.289Z,18.90
2017-05-31T08:19:37.243Z,18.80
2017-05-31T08:22:06.090Z,18.60
2017-05-31T08:24:35.035Z,18.80
2017-05-31T08:27:17.325Z,18.90
2017-05-31T08:29:46.167Z,18.80
2017-05-31T08:32:15.024Z,18.70
2017-05-31T08:34:43.926Z,18.70
2017-05-31T08:37:12.817Z,18.70
2017-05-31T08:39:40.908Z,18.70
2017-05-31T08:42:09.004Z,18.40
2017-05-31T08:44:38.149Z,18.00
2017-05-31T08:47:07.069Z,17.90
2017-05-31T08:49:36.141Z,18.00
2017-05-31T08:52:04.996Z,18.00
2017-05-31T08:54:33.887Z,18.10
2017-05-31T08:57:02.754Z,18.20
2017-05-31T08:59:30.866Z,18.20
2017-05-31T09:01:58.971Z,18.20
2017-05-31T09:04:27.611Z,18.30
2017-05-31T09:06:56.495Z,18.20
2017-05-31T09:09:24.799Z,18.20
2017-05-31T09:11:53.638Z,18.10
2017-05-31T09:14:22.583Z,18.30
2017-05-31T09:16:51.460Z,18.20
2017-05-31T09:19:20.399Z,18.30
2017-05-31T09:21:49.256Z,18.40
2017-05-31T09:24:19.162Z,18.50
2017-05-31T09:26:48.292Z,18.60
2017-05-31T09:29:17.162Z,19.00
2017-05-31T09:31:45.274Z,18.90
2017-05-31T09:34:13.383Z,19.10
2017-05-31T09:36:42.330Z,18.90
2017-05-31T09:39:11.207Z,18.90
2017-05-31T09:41:40.125Z,19.00
2017-05-31T09:44:08.268Z,19.00
2017-05-31T09:46:37.997Z,18.60
2017-05-31T09:49:06.933Z,18.10
2017-05-31T09:51:35.928Z,18.00
2017-05-31T09:54:04.048Z,17.90
2017-05-31T09:56:32.920Z,18.10
2017-05-31T09:59:01.863Z,18.40
2017-05-31T10:01:30.792Z,18.30
2017-05-31T10:03:59.717Z,18.20
2017-05-31T10:06:31.570Z,18.20
2017-05-31T10:09:00.448Z,17.80
2017-05-31T10:11:29.323Z,17.90
2017-05-31T10:13:58.600Z,17.90
2017-05-31T10:16:27.541Z,18.10
2017-05-31T10:18:56.436Z,18.20
2017-05-31T10:21:24.595Z,18.20
2017-05-31T10:23:53.700Z,17.80
2017-05-31T10:26:22.570Z,17.60
2017-05-31T10:28:50.686Z,17.60
2017-05-31T10:31:19.678Z,18.20
2017-05-31T10:33:49.487Z,18.50
2017-05-31T10:36:18.413Z,18.40
2017-05-31T10:38:47.298Z,18.10
2017-05-31T10:41:16.192Z,18.00
2017-05-31T10:43:44.278Z,17.90
2017-05-31T10:46:13.174Z,17.70
2017-05-31T10:48:41.273Z,17.70
2017-05-31T10:51:12.268Z,17.80
2017-05-31T10:53:41.278Z,18.10
2017-05-31T10:56:10.245Z,18.20
2017-05-31T10:58:39.986Z,17.80
2017-05-31T11:01:08.238Z,17.80
2017-05-31T11:03:37.140Z,17.80
2017-05-31T11:06:06.167Z,17.80
2017-05-31T11:08:35.151Z,18.10
2017-05-31T11:11:10.527Z,18.00
2017-05-31T11:13:39.400Z,17.90
2017-05-31T11:16:08.268Z,18.10
2017-05-31T11:18:37.580Z,18.00
2017-05-31T11:21:06.465Z,18.10
2017-05-31T11:23:35.342Z,17.70
2017-05-31T11:26:04.247Z,17.70
2017-05-31T11:28:33.141Z,17.60
2017-05-31T11:31:03.979Z,17.40
2017-05-31T11:33:32.919Z,17.30
2017-05-31T11:36:01.862Z,17.70
2017-05-31T11:38:30.735Z,17.80
2017-05-31T11:40:59.727Z,17.90
2017-05-31T11:43:28.952Z,17.60
2017-05-31T11:45:57.797Z,17.50
2017-05-31T11:48:25.958Z,17.50
2017-05-31T11:50:54.832Z,17.90
2017-05-31T11:53:24.273Z,17.70
2017-05-31T11:55:53.162Z,17.60
2017-05-31T11:58:23.983Z,17.60
2017-05-31T12:00:52.925Z,18.00
2017-05-31T12:03:21.882Z,18.20
2017-05-31T12:05:50.853Z,18.10
2017-05-31T12:08:18.969Z,18.10
2017-05-31T12:10:47.911Z,18.00
2017-05-31T12:13:16.783Z,17.60
2017-05-31T12:15:45.706Z,17.60
2017-05-31T12:18:14.558Z,17.90
2017-05-31T12:20:42.826Z,17.90
2017-05-31T12:23:11.757Z,17.80
2017-05-31T12:25:40.716Z,17.60
2017-05-31T12:28:09.686Z,17.80
2017-05-31T12:30:37.855Z,17.70
2017-05-31T12:33:06.694Z,18.00
2017-05-31T12:35:35.551Z,17.60
2017-05-31T12:38:04.445Z,17.40
2017-05-31T12:40:33.358Z,17.30
2017-05-31T12:43:02.240Z,17.40
2017-05-31T12:45:31.304Z,17.60
2017-05-31T12:48:00.178Z,17.50
2017-05-31T12:50:28.281Z,17.50
2017-05-31T12:52:57.137Z,17.30
2017-05-31T12:55:26.034Z,17.40
2017-05-31T12:57:55.507Z,17.40
2017-05-31T13:00:24.412Z,17.60
2017-05-31T13:02:53.267Z,17.80
2017-05-31T13:05:22.231Z,17.90
2017-05-31T13:07:51.119Z,17.80
2017-05-31T13:10:20.045Z,17.70
2017-05-31T13:12:48.357Z,17.70
2017-05-31T13:15:17.341Z,17.40
2017-05-31T13:17:46.389Z,17.30
2017-05-31T13:20:15.424Z,16.90
2017-05-31T13:22:43.543Z,16.90
2017-05-31T13:25:12.486Z,17.10
2017-05-31T13:27:41.415Z,17.00
2017-05-31T13:30:10.343Z,16.90
2017-05-31T13:32:38.487Z,16.90
2017-05-31T13:35:07.328Z,16.80
2017-05-31T13:37:36.232Z,17.00
2017-05-31T13:40:05.106Z,17.00
2017-05-31T13:42:34.538Z,17.00
2017-05-31T13:45:03.515Z,17.00
2017-05-31T13:47:32.393Z,17.30
2017-05-31T13:50:01.264Z,17.40
2017-05-31T13:52:30.164Z,17.60
2017-05-31T13:55:08.459Z,17.60
2017-05-31T13:57:37.899Z,17.50
2017-05-31T14:00:06.028Z,17.50
2017-05-31T14:02:35.079Z,17.30
2017-05-31T14:05:04.168Z,16.90
2017-05-31T14:07:33.040Z,16.80
2017-05-31T14:10:01.943Z,16.90
2017-05-31T14:12:30.972Z,17.00
2017-05-31T14:14:59.938Z,17.10
2017-05-31T14:17:28.854Z,16.80
2017-05-31T14:19:57.745Z,16.70
2017-05-31T14:22:26.609Z,16.60
2017-05-31T14:24:55.592Z,16.50
2017-05-31T14:27:24.539Z,16.30
2017-05-31T14:29:53.536Z,16.20
2017-05-31T14:32:22.465Z,16.30
2017-05-31T14:34:51.343Z,16.30
2017-05-31T14:37:20.237Z,16.20
2017-05-31T14:39:49.261Z,16.40
2017-05-31T14:42:17.515Z,16.40
2017-05-31T14:44:46.548Z,16.60
2017-05-31T14:47:15.569Z,16.60
2017-05-31T14:49:44.467Z,16.50
2017-05-31T14:52:13.338Z,16.40
2017-05-31T14:54:43.428Z,16.50
2017-05-31T14:57:15.539Z,16.40
2017-05-31T14:59:44.507Z,16.20
2017-05-31T15:02:13.402Z,16.10
2017-05-31T15:04:41.632Z,16.10
2017-05-31T15:07:10.598Z,16.20
2017-05-31T15:09:39.571Z,16.30
2017-05-31T15:12:08.480Z,16.40
2017-05-31T15:14:37.387Z,16.40
2017-05-31T15:17:06.277Z,16.30
2017-05-31T15:19:37.308Z,16.20
2017-05-31T15:22:06.183Z,16.10
2017-05-31T15:24:35.049Z,15.90
2017-05-31T15:29:37.538Z,15.90
2017-05-31T15:32:06.414Z,15.80
2017-05-31T15:34:34.524Z,15.80
2017-05-31T15:37:03.403Z,16.10
2017-05-31T15:39:32.320Z,16.10
2017-05-31T15:42:01.222Z,15.80
2017-05-31T15:44:35.955Z,15.90
2017-05-31T15:47:05.316Z,15.90
2017-05-31T15:49:34.180Z,15.80
2017-05-31T15:52:05.167Z,16.00
2017-05-31T15:54:34.051Z,16.20
2017-05-31T15:57:05.031Z,16.20
2017-05-31T15:59:33.905Z,16.10
2017-05-31T16:02:01.999Z,16.10
2017-05-31T16:04:32.004Z,16.10
2017-05-31T16:07:00.931Z,16.20
2017-05-31T16:09:30.683Z,16.20
2017-05-31T16:14:43.560Z,15.90
2017-05-31T16:17:12.488Z,15.90
2017-05-31T16:19:41.364Z,16.10
2017-05-31T16:22:09.555Z,16.10
2017-05-31T16:24:43.714Z,16.00
2017-05-31T16:27:12.715Z,16.00
2017-05-31T16:29:42.372Z,15.90
2017-05-31T16:32:12.124Z,15.90
2017-05-31T16:34:41.250Z,15.70
2017-05-31T16:37:10.880Z,15.60
2017-05-31T16:39:39.018Z,15.60
2017-05-31T16:42:07.832Z,15.50
2017-05-31T16:44:37.665Z,15.70
2017-05-31T16:47:07.597Z,15.90
2017-05-31T16:49:38.310Z,15.80
2017-05-31T16:52:08.146Z,15.70
2017-05-31T16:54:37.088Z,15.50
2017-05-31T16:57:05.984Z,15.80
2017-05-31T16:59:34.851Z,15.90
2017-05-31T17:02:03.720Z,15.70
2017-05-31T17:04:32.589Z,15.70
2017-05-31T17:07:01.481Z,15.70
2017-05-31T17:09:33.299Z,15.60
2017-05-31T17:12:02.271Z,15.20
2017-05-31T17:14:32.708Z,15.20
2017-05-31T17:17:16.398Z,15.10
2017-05-31T17:19:46.115Z,15.00
2017-05-31T17:22:25.011Z,15.00
2017-05-31T17:24:53.915Z,15.50
2017-05-31T17:27:30.858Z,15.90
2017-05-31T17:30:00.499Z,16.10
2017-05-31T17:35:06.227Z,15.90
2017-05-31T17:37:35.097Z,15.70
2017-05-31T17:40:03.955Z,15.30
2017-05-31T17:42:33.793Z,15.30
2017-05-31T17:45:01.893Z,15.30
2017-05-31T17:47:30.778Z,14.90
2017-05-31T17:49:59.708Z,14.80
2017-05-31T17:52:28.559Z,15.00
2017-05-31T17:54:57.470Z,15.20
2017-05-31T17:57:26.407Z,15.20
2017-05-31T17:59:55.255Z,15.20
2017-05-31T18:02:24.156Z,15.20
2017-05-31T18:04:52.279Z,15.20
2017-05-31T18:07:21.162Z,15.00
2017-05-31T18:09:49.314Z,14.90
2017-05-31T18:12:19.129Z,14.70
2017-05-31T18:14:47.963Z,14.70
2017-05-31T18:17:16.813Z,14.70
2017-05-31T18:19:45.700Z,14.60
2017-05-31T18:22:14.592Z,14.50
2017-05-31T18:24:44.806Z,14.30
2017-05-31T18:27:13.731Z,14.30
2017-05-31T18:29:42.693Z,14.40
2017-05-31T18:32:11.550Z,14.40
2017-05-31T18:34:40.439Z,14.30
2017-05-31T18:37:13.080Z,14.20
2017-05-31T18:39:41.195Z,14.20
2017-05-31T18:42:11.171Z,14.40
2017-05-31T18:44:39.266Z,14.40
2017-05-31T18:47:08.906Z,14.70
2017-05-31T18:49:37.778Z,14.50
2017-05-31T18:52:07.233Z,14.40
2017-05-31T18:54:36.133Z,14.50
2017-05-31T18:57:05.906Z,14.30
2017-05-31T18:59:34.988Z,14.30
2017-05-31T19:02:03.896Z,13.80
2017-05-31T19:04:35.124Z,13.70
2017-05-31T19:07:03.978Z,13.50
2017-05-31T19:09:32.830Z,13.40
2017-05-31T19:12:01.675Z,13.40
2017-05-31T19:14:30.623Z,13.30
2017-05-31T19:16:59.473Z,13.30
2017-05-31T19:19:28.357Z,13.30
2017-05-31T19:22:03.000Z,13.20
2017-05-31T19:24:31.900Z,13.10
2017-05-31T19:27:00.767Z,13.00
2017-05-31T19:29:29.654Z,13.00
2017-05-31T19:31:59.555Z,12.90
2017-05-31T19:34:27.642Z,12.90
2017-05-31T19:36:56.623Z,12.90
2017-05-31T19:39:25.465Z,12.80
2017-05-31T19:41:58.026Z,12.80
2017-05-31T19:44:26.920Z,12.70
2017-05-31T19:46:55.883Z,12.70
2017-05-31T19:49:25.723Z,12.60
2017-05-31T19:51:54.612Z,12.60
2017-05-31T19:54:24.262Z,12.50
2017-05-31T19:56:53.831Z,12.50
2017-05-31T19:59:22.774Z,12.50
2017-05-31T20:01:51.637Z,12.50
2017-05-31T20:04:20.518Z,12.40
2017-05-31T20:06:50.230Z,12.40
2017-05-31T20:09:20.872Z,12.30
2017-05-31T20:11:50.727Z,12.30
2017-05-31T20:14:19.625Z,12.20
2017-05-31T20:16:49.309Z,12.20
2017-05-31T20:19:19.092Z,12.10
2017-05-31T20:21:50.162Z,12.10
2017-05-31T20:24:19.536Z,12.10
2017-05-31T20:26:52.052Z,12.10
2017-05-31T20:29:23.953Z,12.00
2017-05-31T20:31:52.802Z,12.00
2017-05-31T20:34:22.403Z,12.00
2017-05-31T20:36:52.991Z,11.90
2017-05-31T20:39:23.066Z,11.90
2017-05-31T20:44:32.075Z,11.80
2017-05-31T20:47:01.932Z,11.80
2017-05-31T20:49:33.375Z,11.70
2017-05-31T20:52:05.242Z,11.60
2017-05-31T20:54:34.230Z,11.60
2017-05-31T20:57:09.008Z,11.60
2017-05-31T20:59:39.290Z,11.50
2017-05-31T21:02:07.382Z,11.50
2017-05-31T21:04:43.887Z,11.50
2017-05-31T21:07:13.678Z,11.50
2017-05-31T21:09:47.852Z,11.40
2017-05-31T21:12:19.277Z,11.40
2017-05-31T21:14:48.225Z,11.40
2017-05-31T21:17:18.663Z,11.40
2017-05-31T21:19:47.494Z,11.40
2017-05-31T21:22:16.440Z,11.30
2017-05-31T21:24:46.065Z,11.30
2017-05-31T21:27:15.017Z,11.20
2017-05-31T21:29:43.917Z,11.20
2017-05-31T21:32:13.073Z,11.20
2017-05-31T21:34:42.139Z,11.20
2017-05-31T21:37:12.248Z,11.10
2017-05-31T21:39:41.131Z,11.10
2017-05-31T21:42:10.878Z,11.10
2017-05-31T21:44:39.769Z,11.00
2017-05-31T21:47:08.651Z,11.00
2017-05-31T21:49:37.624Z,11.00
2017-05-31T21:52:06.536Z,11.00
2017-05-31T21:54:35.529Z,11.00
2017-05-31T21:57:05.188Z,10.90
2017-05-31T21:59:35.234Z,10.90
2017-05-31T22:02:04.073Z,10.90
2017-05-31T22:04:33.743Z,10.90
2017-05-31T22:07:02.621Z,10.80
2017-05-31T22:09:30.767Z,10.80
2017-05-31T22:11:58.904Z,10.80
2017-05-31T22:14:27.764Z,10.70
2017-05-31T22:16:56.641Z,10.70
2017-05-31T22:19:24.767Z,10.70
2017-05-31T22:21:53.649Z,10.70
2017-05-31T22:24:21.775Z,10.70
2017-05-31T22:26:50.670Z,10.60
2017-05-31T22:29:19.586Z,10.60
2017-05-31T22:31:49.683Z,10.60
2017-05-31T22:34:18.565Z,10.60
2017-05-31T22:36:47.422Z,10.60
2017-05-31T22:39:16.319Z,10.50
2017-05-31T22:41:46.334Z,10.50
2017-05-31T22:44:16.127Z,10.50
2017-05-31T22:46:44.998Z,10.50
2017-05-31T22:49:13.933Z,10.50
2017-05-31T22:51:42.766Z,10.50
2017-05-31T22:54:11.615Z,10.50
2017-05-31T22:56:40.474Z,10.50
2017-05-31T22:59:09.375Z,10.50
2017-05-31T23:01:38.275Z,10.50
2017-05-31T23:04:09.007Z,10.50
2017-05-31T23:06:38.037Z,10.50
2017-05-31T23:09:06.953Z,10.40
2017-05-31T23:11:35.040Z,10.40
2017-05-31T23:14:03.403Z,10.40
2017-05-31T23:16:32.347Z,10.40
2017-05-31T23:19:00.445Z,10.40
2017-05-31T23:21:29.308Z,10.40
2017-05-31T23:23:58.191Z,10.40
2017-05-31T23:26:28.304Z,10.40
2017-05-31T23:28:57.172Z,10.40
2017-05-31T23:31:26.063Z,10.40
2017-05-31T23:33:54.954Z,10.30
2017-05-31T23:36:23.830Z,10.30
2017-05-31T23:38:52.745Z,10.30
2017-05-31T23:41:22.835Z,10.30
2017-05-31T23:43:52.874Z,10.20
2017-05-31T23:46:21.743Z,10.20
2017-05-31T23:48:50.882Z,10.20
2017-05-31T23:51:19.748Z,10.20
2017-05-31T23:53:48.666Z,10.20
2017-05-31T23:56:17.534Z,10.20
2017-05-31T23:58:45.644Z,10.10
